createdAt,value
2018-08-13T00:00:59.580Z,10.50
2018-08-13T00:03:27.864Z,12.60
2018-08-13T00:05:56.179Z,8.07
2018-08-13T00:08:24.479Z,11.80
2018-08-13T00:10:52.781Z,8.73
2018-08-13T00:13:21.064Z,10.13
2018-08-13T00:15:49.413Z,8.57
2018-08-13T00:18:17.669Z,9.70
2018-08-13T00:20:45.967Z,8.20
2018-08-13T00:23:14.225Z,10.60
2018-08-13T00:25:42.520Z,11.07
2018-08-13T00:28:11.285Z,10.13
2018-08-13T00:30:40.103Z,9.00
2018-08-13T00:33:09.672Z,9.77
2018-08-13T00:35:37.982Z,13.17
2018-08-13T00:38:06.537Z,8.13
2018-08-13T00:40:34.909Z,8.73
2018-08-13T00:43:03.273Z,7.87
2018-08-13T00:45:32.598Z,8.00
2018-08-13T00:48:00.917Z,8.57
2018-08-13T00:50:30.298Z,7.53
2018-08-13T00:52:58.549Z,6.90
2018-08-13T00:55:26.829Z,7.80
2018-08-13T00:57:55.105Z,7.13
2018-08-13T01:00:23.599Z,6.90
2018-08-13T01:02:52.288Z,38.27
2018-08-13T01:05:22.073Z,9.90
2018-08-13T01:07:50.699Z,9.23
2018-08-13T01:10:20.361Z,8.80
2018-08-13T01:12:48.710Z,8.03
2018-08-13T01:15:18.502Z,8.97
2018-08-13T01:17:48.085Z,11.73
2018-08-13T01:20:19.187Z,9.07
2018-08-13T01:22:47.548Z,8.83
2018-08-13T01:25:17.389Z,8.50
2018-08-13T01:27:46.803Z,8.80
2018-08-13T01:30:17.456Z,8.30
2018-08-13T01:32:46.857Z,8.97
2018-08-13T01:35:15.133Z,8.60
2018-08-13T01:37:43.454Z,7.07
2018-08-13T01:40:12.426Z,7.40
2018-08-13T01:42:40.753Z,8.37
2018-08-13T01:45:11.580Z,8.87
2018-08-13T01:47:40.718Z,7.30
2018-08-13T01:50:10.597Z,8.30
2018-08-13T01:52:40.228Z,8.23
2018-08-13T01:55:10.630Z,8.90
2018-08-13T01:57:39.033Z,7.40
2018-08-13T02:00:16.701Z,7.63
2018-08-13T02:02:45.042Z,8.57
2018-08-13T02:05:13.305Z,8.20
2018-08-13T02:07:41.949Z,8.67
2018-08-13T02:10:12.276Z,7.33
2018-08-13T02:12:40.996Z,8.87
2018-08-13T02:15:09.438Z,8.43
2018-08-13T02:17:37.748Z,9.17
2018-08-13T02:20:07.256Z,9.07
2018-08-13T02:22:35.672Z,9.13
2018-08-13T02:25:04.601Z,8.00
2018-08-13T02:27:32.882Z,7.57
2018-08-13T02:30:01.198Z,8.47
2018-08-13T02:32:29.496Z,14.33
2018-08-13T02:34:57.777Z,7.97
2018-08-13T02:37:32.308Z,8.73
2018-08-13T02:40:00.652Z,8.03
2018-08-13T02:42:29.114Z,7.80
2018-08-13T02:44:57.393Z,8.13
2018-08-13T02:47:25.653Z,9.60
2018-08-13T02:49:54.957Z,9.57
2018-08-13T02:52:23.228Z,8.33
2018-08-13T02:54:51.509Z,9.00
2018-08-13T02:57:19.773Z,11.30
2018-08-13T02:59:48.057Z,8.73
2018-08-13T03:02:18.364Z,8.67
2018-08-13T03:04:46.706Z,8.90
2018-08-13T03:07:14.913Z,9.33
2018-08-13T03:09:43.185Z,8.10
2018-08-13T03:12:11.505Z,9.17
2018-08-13T03:14:39.806Z,9.80
2018-08-13T03:17:09.447Z,8.80
2018-08-13T03:19:37.709Z,10.20
2018-08-13T03:22:06.017Z,8.00
2018-08-13T03:24:34.260Z,8.57
2018-08-13T03:27:03.636Z,8.87
2018-08-13T03:29:31.922Z,8.53
2018-08-13T03:32:00.209Z,9.60
2018-08-13T03:34:28.472Z,8.33
2018-08-13T03:36:56.763Z,10.50
2018-08-13T03:39:25.073Z,8.90
2018-08-13T03:41:53.356Z,9.37
2018-08-13T03:44:21.621Z,8.03
2018-08-13T03:46:49.926Z,9.33
2018-08-13T03:49:18.169Z,9.47
2018-08-13T03:51:47.553Z,13.37
2018-08-13T03:54:15.810Z,10.10
2018-08-13T03:56:44.190Z,12.30
2018-08-13T03:59:12.492Z,10.00
2018-08-13T04:01:40.804Z,11.37
2018-08-13T04:04:09.111Z,10.33
2018-08-13T04:06:37.349Z,12.43
2018-08-13T04:09:08.328Z,9.23
2018-08-13T04:11:37.027Z,11.20
2018-08-13T04:14:06.245Z,10.27
2018-08-13T04:16:34.488Z,11.10
2018-08-13T04:19:03.274Z,11.70
2018-08-13T04:21:31.527Z,10.87
2018-08-13T04:23:59.837Z,11.07
2018-08-13T04:26:28.109Z,9.10
2018-08-13T04:28:56.392Z,10.10
2018-08-13T04:31:24.652Z,10.27
2018-08-13T04:33:52.925Z,11.80
2018-08-13T04:36:21.204Z,8.83
2018-08-13T04:38:49.461Z,11.27
2018-08-13T04:41:17.749Z,7.70
2018-08-13T04:43:46.049Z,7.77
2018-08-13T04:46:14.296Z,6.90
2018-08-13T04:48:42.577Z,7.33
2018-08-13T04:51:10.828Z,7.73
2018-08-13T04:53:39.113Z,6.23
2018-08-13T04:56:07.382Z,11.60
2018-08-13T04:58:35.672Z,7.20
2018-08-13T05:01:03.981Z,9.13
2018-08-13T05:03:32.296Z,6.63
2018-08-13T05:06:00.545Z,6.27
2018-08-13T05:08:28.811Z,5.77
2018-08-13T05:10:57.077Z,7.90
2018-08-13T05:13:25.336Z,6.50
2018-08-13T05:15:53.669Z,8.20
2018-08-13T05:18:22.312Z,9.50
2018-08-13T05:20:50.604Z,6.33
2018-08-13T05:23:18.940Z,6.30
2018-08-13T05:25:47.269Z,5.83
2018-08-13T05:28:15.620Z,9.70
2018-08-13T05:30:43.917Z,6.67
2018-08-13T05:33:12.200Z,5.57
2018-08-13T05:35:40.489Z,7.17
2018-08-13T05:38:09.756Z,6.20
2018-08-13T05:40:38.077Z,6.40
2018-08-13T05:43:06.632Z,6.50
2018-08-13T05:45:34.973Z,5.73
2018-08-13T05:48:03.388Z,6.13
2018-08-13T05:50:34.172Z,6.00
2018-08-13T05:53:02.540Z,6.67
2018-08-13T05:55:30.753Z,5.70
2018-08-13T05:57:59.473Z,9.60
2018-08-13T06:00:27.721Z,5.90
2018-08-13T06:02:56.070Z,6.03
2018-08-13T06:05:24.293Z,5.87
2018-08-13T06:07:52.595Z,5.77
2018-08-13T06:10:20.904Z,6.37
2018-08-13T06:12:49.192Z,6.00
2018-08-13T06:15:17.457Z,6.63
2018-08-13T06:17:45.717Z,7.00
2018-08-13T06:20:14.038Z,5.90
2018-08-13T06:22:43.784Z,7.23
2018-08-13T06:25:12.972Z,7.70
2018-08-13T06:27:41.265Z,6.60
2018-08-13T06:30:12.084Z,6.50
2018-08-13T06:32:41.222Z,6.97
2018-08-13T06:35:09.821Z,6.83
2018-08-13T06:37:38.084Z,8.20
2018-08-13T06:40:06.997Z,6.73
2018-08-13T06:42:35.248Z,8.03
2018-08-13T06:45:03.765Z,6.90
2018-08-13T06:47:32.025Z,9.17
2018-08-13T06:50:00.370Z,6.77
2018-08-13T06:52:28.625Z,8.47
2018-08-13T06:54:56.913Z,7.00
2018-08-13T06:57:25.212Z,7.80
2018-08-13T06:59:53.512Z,6.27
2018-08-13T07:02:21.821Z,7.10
2018-08-13T07:04:50.116Z,6.73
2018-08-13T07:07:18.453Z,7.30
2018-08-13T07:09:46.757Z,6.53
2018-08-13T07:12:15.073Z,6.60
2018-08-13T07:14:43.441Z,5.97
2018-08-13T07:17:11.736Z,6.80
2018-08-13T07:19:39.969Z,7.20
2018-08-13T07:22:08.298Z,10.13
2018-08-13T07:24:37.026Z,6.77
2018-08-13T07:27:05.317Z,10.40
2018-08-13T07:29:33.564Z,8.70
2018-08-13T07:32:01.853Z,8.90
2018-08-13T07:34:30.108Z,6.30
2018-08-13T07:36:58.393Z,10.97
2018-08-13T07:39:26.742Z,6.80
2018-08-13T07:41:54.997Z,8.43
2018-08-13T07:44:23.253Z,5.73
2018-08-13T07:46:52.612Z,6.63
2018-08-13T07:49:20.877Z,5.80
2018-08-13T07:51:49.220Z,8.20
2018-08-13T07:54:17.405Z,7.13
2018-08-13T07:56:45.682Z,6.77
2018-08-13T07:59:13.940Z,8.90
2018-08-13T08:01:42.193Z,8.20
2018-08-13T08:04:10.492Z,6.10
2018-08-13T08:06:39.941Z,7.63
2018-08-13T08:09:10.727Z,5.73
2018-08-13T08:11:39.820Z,7.33
2018-08-13T08:14:08.592Z,6.60
2018-08-13T08:16:36.842Z,9.07
2018-08-13T08:19:05.117Z,5.87
2018-08-13T08:21:33.397Z,5.17
2018-08-13T08:24:02.110Z,5.70
2018-08-13T08:26:30.709Z,5.97
2018-08-13T08:28:59.003Z,5.30
2018-08-13T08:31:27.325Z,5.17
2018-08-13T08:33:55.641Z,5.07
2018-08-13T08:36:23.974Z,6.80
2018-08-13T08:38:52.552Z,5.60
2018-08-13T08:41:20.877Z,6.00
2018-08-13T08:43:49.130Z,8.57
2018-08-13T08:46:17.417Z,7.80
2018-08-13T08:48:45.661Z,5.60
2018-08-13T08:51:14.061Z,7.10
2018-08-13T08:53:42.420Z,5.73
2018-08-13T08:56:10.589Z,5.63
2018-08-13T08:58:38.868Z,5.20
2018-08-13T09:01:07.141Z,4.10
2018-08-13T09:03:35.543Z,3.57
2018-08-13T09:06:04.215Z,5.00
2018-08-13T09:08:32.410Z,4.23
2018-08-13T09:11:00.676Z,3.50
2018-08-13T09:13:28.949Z,3.90
2018-08-13T09:15:57.246Z,4.67
2018-08-13T09:18:36.689Z,3.53
2018-08-13T09:21:16.245Z,3.10
2018-08-13T09:23:55.942Z,5.60
2018-08-13T09:26:35.632Z,7.30
2018-08-13T09:29:15.105Z,4.10
2018-08-13T09:32:27.223Z,4.27
2018-08-13T09:35:17.150Z,3.70
2018-08-13T09:37:45.546Z,4.07
2018-08-13T09:40:13.888Z,5.57
2018-08-13T09:42:42.252Z,6.90
2018-08-13T09:45:10.517Z,2.70
2018-08-13T09:47:39.467Z,8.13
2018-08-13T09:50:10.177Z,3.43
2018-08-13T09:52:38.481Z,4.07
2018-08-13T09:55:07.960Z,2.80
2018-08-13T09:57:36.249Z,3.30
2018-08-13T10:00:07.169Z,4.67
2018-08-13T10:02:35.441Z,7.30
2018-08-13T10:05:03.763Z,11.10
2018-08-13T10:07:32.041Z,9.73
2018-08-13T10:10:00.325Z,6.20
2018-08-13T10:12:28.581Z,5.30
2018-08-13T10:14:56.960Z,4.13
2018-08-13T10:17:25.287Z,7.93
2018-08-13T10:19:53.584Z,5.37
2018-08-13T10:22:22.046Z,3.93
2018-08-13T10:24:50.344Z,4.00
2018-08-13T10:27:18.617Z,7.60
2018-08-13T10:29:47.002Z,4.33
2018-08-13T10:32:15.246Z,6.00
2018-08-13T10:34:44.589Z,3.10
2018-08-13T10:37:12.925Z,4.17
2018-08-13T10:39:41.206Z,6.97
2018-08-13T10:42:09.502Z,6.03
2018-08-13T10:44:37.797Z,9.13
2018-08-13T10:47:06.077Z,3.80
2018-08-13T10:49:34.397Z,6.63
2018-08-13T10:52:02.645Z,9.30
2018-08-13T10:54:30.912Z,2.93
2018-08-13T10:56:59.204Z,5.70
2018-08-13T10:59:27.454Z,3.60
2018-08-13T11:01:55.742Z,3.83
2018-08-13T11:04:24.024Z,3.87
2018-08-13T11:06:52.322Z,1.80
2018-08-13T11:09:20.564Z,4.37
2018-08-13T11:11:48.876Z,2.77
2018-08-13T11:14:17.153Z,3.30
2018-08-13T11:16:45.455Z,4.53
2018-08-13T11:19:13.708Z,6.67
2018-08-13T11:21:42.253Z,6.67
2018-08-13T11:24:10.493Z,6.60
2018-08-13T11:26:38.741Z,4.37
2018-08-13T11:29:08.109Z,2.57
2018-08-13T11:31:36.419Z,4.53
2018-08-13T11:34:04.705Z,3.50
2018-08-13T11:36:32.969Z,8.90
2018-08-13T11:39:01.282Z,2.77
2018-08-13T11:41:30.618Z,2.83
2018-08-13T11:43:58.897Z,3.37
2018-08-13T11:46:27.300Z,2.33
2018-08-13T11:48:55.585Z,3.23
2018-08-13T11:51:23.885Z,4.10
2018-08-13T11:53:52.168Z,4.07
2018-08-13T11:56:20.587Z,3.30
2018-08-13T11:58:48.977Z,5.50
2018-08-13T12:01:17.272Z,2.87
2018-08-13T12:03:45.612Z,1.90
2018-08-13T12:06:13.857Z,4.70
2018-08-13T12:08:42.193Z,5.63
2018-08-13T12:11:10.525Z,1.93
2018-08-13T12:13:38.820Z,6.00
2018-08-13T12:16:07.229Z,4.87
2018-08-13T12:18:35.495Z,1.90
2018-08-13T12:21:03.777Z,5.43
2018-08-13T12:23:32.021Z,2.00
2018-08-13T12:26:00.309Z,3.43
2018-08-13T12:28:28.548Z,7.80
2018-08-13T12:30:56.958Z,2.70
2018-08-13T12:33:25.217Z,2.47
2018-08-13T12:35:53.509Z,5.70
2018-08-13T12:38:21.825Z,2.17
2018-08-13T12:40:50.121Z,14.73
2018-08-13T12:43:18.377Z,2.83
2018-08-13T12:45:46.790Z,10.33
2018-08-13T12:48:15.109Z,3.17
2018-08-13T12:50:43.421Z,11.13
2018-08-13T12:53:11.717Z,5.40
2018-08-13T12:55:40.134Z,5.90
2018-08-13T12:58:08.421Z,4.13
2018-08-13T13:00:36.758Z,5.00
2018-08-13T13:03:05.061Z,5.97
2018-08-13T13:05:33.449Z,5.80
2018-08-13T13:08:01.754Z,4.30
2018-08-13T13:10:30.044Z,5.30
2018-08-13T13:12:58.375Z,6.70
2018-08-13T13:15:26.625Z,3.60
2018-08-13T13:17:54.968Z,5.17
2018-08-13T13:20:23.880Z,6.50
2018-08-13T13:22:52.609Z,4.80
2018-08-13T13:25:21.244Z,9.73
2018-08-13T13:27:49.625Z,5.90
2018-08-13T13:30:18.293Z,4.40
2018-08-13T13:32:46.825Z,6.00
2018-08-13T13:35:16.436Z,11.43
2018-08-13T13:37:44.716Z,5.07
2018-08-13T13:40:15.690Z,7.13
2018-08-13T13:42:44.001Z,10.53
2018-08-13T13:45:12.782Z,6.20
2018-08-13T13:47:41.143Z,3.37
2018-08-13T13:50:13.983Z,4.10
2018-08-13T13:52:42.496Z,4.30
2018-08-13T13:55:12.180Z,5.90
2018-08-13T13:57:40.494Z,4.00
2018-08-13T14:00:15.405Z,3.20
2018-08-13T14:02:43.770Z,3.90
2018-08-13T14:05:12.082Z,4.40
2018-08-13T14:07:40.341Z,5.43
2018-08-13T14:10:14.159Z,3.73
2018-08-13T14:12:42.757Z,3.07
2018-08-13T14:15:13.129Z,7.70
2018-08-13T14:17:42.105Z,2.97
2018-08-13T14:20:11.135Z,3.63
2018-08-13T14:22:40.180Z,4.20
2018-08-13T14:25:10.313Z,5.10
2018-08-13T14:27:38.665Z,6.60
2018-08-13T14:30:11.048Z,7.50
2018-08-13T14:32:39.323Z,5.53
2018-08-13T14:35:07.697Z,7.83
2018-08-13T14:37:36.047Z,5.73
2018-08-13T14:40:04.677Z,4.07
2018-08-13T14:42:32.976Z,6.70
2018-08-13T14:45:01.247Z,9.17
2018-08-13T14:47:29.561Z,18.23
2018-08-13T14:49:57.851Z,5.80
2018-08-13T14:52:26.106Z,9.77
2018-08-13T14:54:57.813Z,4.73
2018-08-13T14:57:26.435Z,5.40
2018-08-13T14:59:54.789Z,8.13
2018-08-13T15:02:23.057Z,6.47
2018-08-13T15:04:51.334Z,7.50
2018-08-13T15:07:19.629Z,4.83
2018-08-13T15:09:47.945Z,7.03
2018-08-13T15:12:16.236Z,3.27
2018-08-13T15:14:44.545Z,3.07
2018-08-13T15:17:12.838Z,6.07
2018-08-13T15:19:48.461Z,7.60
2018-08-13T15:22:16.789Z,7.27
2018-08-13T15:24:45.029Z,5.73
2018-08-13T15:27:13.409Z,5.57
2018-08-13T15:29:41.581Z,10.57
2018-08-13T15:32:09.873Z,7.43
2018-08-13T15:34:38.125Z,5.10
2018-08-13T15:37:06.405Z,7.20
2018-08-13T15:39:34.660Z,10.87
2018-08-13T15:42:03.090Z,4.60
2018-08-13T15:44:31.502Z,5.47
2018-08-13T15:47:00.033Z,7.43
2018-08-13T15:49:28.285Z,7.23
2018-08-13T15:51:56.681Z,8.47
2018-08-13T15:54:24.993Z,8.40
2018-08-13T15:56:53.277Z,4.80
2018-08-13T15:59:22.596Z,6.80
2018-08-13T16:01:50.930Z,5.47
2018-08-13T16:04:20.209Z,6.93
2018-08-13T16:06:49.477Z,5.53
2018-08-13T16:09:17.793Z,4.87
2018-08-13T16:11:46.036Z,9.80
2018-08-13T16:14:14.349Z,10.10
2018-08-13T16:16:42.600Z,5.63
2018-08-13T16:19:10.902Z,7.93
2018-08-13T16:21:39.231Z,11.83
2018-08-13T16:24:07.549Z,8.20
2018-08-13T16:26:35.876Z,7.90
2018-08-13T16:29:04.169Z,11.40
2018-08-13T16:31:32.608Z,6.20
2018-08-13T16:34:00.888Z,7.03
2018-08-13T16:36:29.133Z,6.80
2018-08-13T16:38:57.408Z,25.17
2018-08-13T16:41:25.684Z,11.10
2018-08-13T16:43:54.117Z,6.70
2018-08-13T16:46:22.374Z,12.90
2018-08-13T16:48:50.665Z,10.03
2018-08-13T16:51:18.948Z,7.73
2018-08-13T16:53:47.262Z,7.03
2018-08-13T16:56:15.627Z,15.73
2018-08-13T16:58:43.923Z,9.13
2018-08-13T17:01:12.267Z,12.40
2018-08-13T17:03:40.606Z,7.80
2018-08-13T17:06:08.884Z,7.83
2018-08-13T17:08:37.202Z,8.73
2018-08-13T17:11:05.882Z,8.20
2018-08-13T17:13:34.204Z,8.97
2018-08-13T17:16:03.581Z,7.70
2018-08-13T17:18:32.053Z,8.73
2018-08-13T17:21:01.444Z,10.40
2018-08-13T17:23:29.697Z,8.47
2018-08-13T17:25:58.005Z,7.80
2018-08-13T17:28:26.251Z,7.67
2018-08-13T17:30:54.532Z,9.47
2018-08-13T17:33:22.809Z,9.50
2018-08-13T17:35:51.169Z,7.60
2018-08-13T17:38:19.439Z,9.63
2018-08-13T17:40:47.770Z,8.30
2018-08-13T17:43:16.341Z,6.30
2018-08-13T17:45:44.490Z,13.23
2018-08-13T17:48:12.753Z,11.50
2018-08-13T17:50:41.049Z,14.00
2018-08-13T17:53:10.257Z,8.33
2018-08-13T17:55:38.677Z,9.03
2018-08-13T17:58:08.052Z,7.60
2018-08-13T18:00:36.328Z,8.00
2018-08-13T18:03:04.590Z,8.70
2018-08-13T18:05:32.864Z,11.43
2018-08-13T18:08:01.112Z,8.50
2018-08-13T18:10:32.565Z,8.90
2018-08-13T18:13:02.549Z,9.10
2018-08-13T18:15:31.262Z,10.40
2018-08-13T18:17:59.597Z,13.30
2018-08-13T18:20:28.265Z,9.70
2018-08-13T18:22:56.601Z,8.57
2018-08-13T18:25:24.941Z,15.00
2018-08-13T18:27:53.564Z,14.77
2018-08-13T18:30:25.021Z,8.80
2018-08-13T18:32:53.748Z,6.60
2018-08-13T18:35:22.032Z,9.10
2018-08-13T18:37:50.321Z,8.23
2018-08-13T18:40:22.265Z,7.97
2018-08-13T18:42:50.835Z,12.73
2018-08-13T18:45:19.097Z,9.60
2018-08-13T18:47:48.177Z,11.43
2018-08-13T18:50:17.980Z,8.47
2018-08-13T18:52:46.649Z,12.10
2018-08-13T18:55:16.494Z,7.70
2018-08-13T18:57:44.990Z,9.43
2018-08-13T19:00:17.869Z,7.83
2018-08-13T19:02:46.159Z,10.23
2018-08-13T19:05:16.088Z,7.97
2018-08-13T19:07:45.217Z,9.40
2018-08-13T19:10:14.486Z,8.60
2018-08-13T19:12:42.758Z,8.83
2018-08-13T19:15:13.205Z,11.00
2018-08-13T19:17:41.505Z,7.30
2018-08-13T19:20:11.723Z,7.70
2018-08-13T19:22:40.044Z,14.23
2018-08-13T19:25:12.577Z,8.00
2018-08-13T19:27:41.116Z,7.47
2018-08-13T19:30:10.729Z,10.17
2018-08-13T19:32:38.996Z,9.80
2018-08-13T19:35:08.142Z,11.77
2018-08-13T19:37:36.393Z,10.47
2018-08-13T19:40:07.149Z,12.67
2018-08-13T19:42:35.502Z,8.33
2018-08-13T19:45:04.083Z,11.47
2018-08-13T19:47:32.339Z,9.50
2018-08-13T19:50:00.663Z,8.80
2018-08-13T19:52:28.938Z,11.20
2018-08-13T19:54:57.437Z,10.27
2018-08-13T19:57:25.723Z,12.20
2018-08-13T19:59:53.998Z,10.03
2018-08-13T20:02:22.289Z,10.90
2018-08-13T20:04:53.339Z,11.77
2018-08-13T20:07:21.693Z,12.80
2018-08-13T20:09:49.957Z,10.50
2018-08-13T20:12:18.361Z,13.27
2018-08-13T20:14:46.665Z,12.67
2018-08-13T20:17:14.976Z,10.40
2018-08-13T20:19:43.345Z,12.33
2018-08-13T20:22:15.087Z,12.30
2018-08-13T20:24:43.750Z,12.33
2018-08-13T20:27:12.097Z,13.27
2018-08-13T20:29:40.396Z,13.30
2018-08-13T20:32:09.440Z,12.97
2018-08-13T20:34:37.721Z,16.77
2018-08-13T20:37:06.108Z,13.30
2018-08-13T20:39:34.317Z,13.80
2018-08-13T20:42:02.613Z,14.13
2018-08-13T20:44:30.939Z,14.40
2018-08-13T20:46:59.241Z,14.60
2018-08-13T20:49:27.626Z,16.23
2018-08-13T20:51:55.851Z,15.57
2018-08-13T20:54:24.177Z,18.50
2018-08-13T20:56:52.447Z,16.10
2018-08-13T20:59:20.741Z,15.87
2018-08-13T21:01:49.006Z,15.80
2018-08-13T21:04:17.652Z,15.37
2018-08-13T21:06:45.932Z,15.90
2018-08-13T21:09:14.361Z,15.13
2018-08-13T21:11:42.549Z,14.10
2018-08-13T21:14:10.885Z,14.80
2018-08-13T21:16:39.165Z,12.53
2018-08-13T21:19:07.493Z,12.57
2018-08-13T21:21:35.769Z,11.53
2018-08-13T21:24:04.477Z,12.67
2018-08-13T21:26:32.746Z,13.90
2018-08-13T21:29:01.022Z,13.13
2018-08-13T21:31:29.322Z,12.90
2018-08-13T21:33:57.634Z,11.90
2018-08-13T21:36:25.958Z,13.17
2018-08-13T21:38:55.367Z,13.90
2018-08-13T21:41:24.242Z,15.80
2018-08-13T21:43:53.516Z,15.37
2018-08-13T21:46:21.839Z,17.83
2018-08-13T21:48:50.323Z,17.27
2018-08-13T21:51:18.641Z,19.73
2018-08-13T21:53:46.912Z,19.30
2018-08-13T21:56:15.349Z,18.67
2018-08-13T21:58:43.625Z,21.77
2018-08-13T22:01:17.254Z,23.40
2018-08-13T22:03:45.534Z,24.30
2018-08-13T22:06:13.872Z,26.77
2018-08-13T22:08:42.405Z,26.00
2018-08-13T22:11:11.309Z,28.20
2018-08-13T22:13:39.637Z,28.03
2018-08-13T22:16:07.933Z,27.77
2018-08-13T22:18:36.204Z,26.40
2018-08-13T22:21:06.021Z,28.30
2018-08-13T22:23:34.305Z,32.03
2018-08-13T22:26:02.633Z,30.33
2018-08-13T22:28:30.912Z,30.40
2018-08-13T22:30:59.440Z,30.67
2018-08-13T22:33:27.713Z,29.20
2018-08-13T22:35:55.993Z,30.33
2018-08-13T22:38:24.277Z,34.17
2018-08-13T22:40:52.605Z,34.10
2018-08-13T22:43:21.997Z,29.83
2018-08-13T22:45:50.250Z,29.73
2018-08-13T22:48:18.553Z,30.07
2018-08-13T22:50:46.862Z,29.70
2018-08-13T22:53:15.159Z,32.47
2018-08-13T22:55:43.425Z,32.30
2018-08-13T22:58:11.883Z,32.83
2018-08-13T23:00:40.219Z,34.00
2018-08-13T23:03:08.480Z,34.80
2018-08-13T23:05:36.765Z,30.57
2018-08-13T23:08:05.266Z,32.73
2018-08-13T23:10:33.549Z,34.07
2018-08-13T23:13:01.885Z,36.37
2018-08-13T23:15:30.204Z,35.07
2018-08-13T23:17:58.505Z,29.27
2018-08-13T23:20:28.601Z,33.93
2018-08-13T23:22:59.080Z,37.03
2018-08-13T23:25:28.009Z,40.53
2018-08-13T23:27:57.428Z,38.57
2018-08-13T23:30:25.769Z,38.37
2018-08-13T23:32:55.061Z,35.67
2018-08-13T23:35:24.069Z,41.17
2018-08-13T23:37:52.654Z,39.37
2018-08-13T23:40:20.999Z,44.03
2018-08-13T23:42:49.313Z,46.27
2018-08-13T23:45:20.929Z,47.20
2018-08-13T23:47:49.233Z,47.87
2018-08-13T23:50:19.596Z,50.23
2018-08-13T23:52:48.980Z,58.20
2018-08-13T23:55:32.633Z,54.77
2018-08-13T23:58:01.459Z,54.17
